Malvina, Mississippi
Current Conditions -  °F | °C
As of 5:15 AM on Monday 22 Dec 2014 (Local Time) from KRNV Reporting Station
Haze Haze  
Wind Chill: 50°   Ceiling: 500
Heat Index: 50°   Visibility: 5mi
Dew Point: 50°   Wind: 9mph
Humidity: 100%   Direction: 150°SSE
Pressure: 29.83"   Gusts: NA
Location:  33.8277°N, 90.9559°W
Report Text: KRNV 221115Z AUTO 15008KT 5SM BR OVC005 10/10 A2983 RMK AO2 T01010101
Loading
Personal Weather Stations






























Interactive Weather Map New forecast layout! Learn more

10-Day Weather Forecast

Advertisements
Track Severe Weather on mobile